Time;durP1;ratioP1;P1;durP2;ratioP2;P2;SDS_P1;SDS_P2;PMS_P1;PMS_P2;Temp;Humidity;BMP_temperature;BMP_pressure;BME280_temperature;BME280_humidity;BME280_pressure;Samples;Min_cycle;Max_cycle;Signal;HPM_P1;HPM_P2
2021/06/14 00:02:15;;;;;;;7.80;7.10;;;;;;;;;;5104329;27;20015;-41
2021/06/14 00:04:40;;;;;;;9.25;6.78;;;;;;;;;;5106158;27;20462;-44
2021/06/14 00:07:06;;;;;;;10.07;7.68;;;;;;;;;;5093394;27;20052;-41
2021/06/14 00:09:31;;;;;;;6.82;6.20;;;;;;;;;;5099626;27;20035;-44
2021/06/14 00:11:58;;;;;;;7.90;6.30;;;;;;;;;;5100336;27;20026;-44
2021/06/14 00:14:23;;;;;;;7.03;6.43;;;;;;;;;;5098044;27;20417;-44
2021/06/14 00:16:48;;;;;;;8.27;7.57;;;;;;;;;;5100867;27;20038;-42
2021/06/14 00:19:14;;;;;;;7.85;7.22;;;;;;;;;;5105359;27;20037;-42
2021/06/14 00:21:39;;;;;;;9.85;8.85;;;;;;;;;;5100689;27;20028;-43
2021/06/14 00:24:06;;;;;;;7.80;7.10;;;;;;;;;;5096797;28;20024;-43
2021/06/14 00:26:32;;;;;;;7.15;6.55;;;;;;;;;;5097793;28;20492;-42
2021/06/14 00:28:57;;;;;;;8.23;7.20;;;;;;;;;;5098109;27;20027;-42
2021/06/14 00:31:23;;;;;;;8.07;7.38;;;;;;;;;;5106451;28;20023;-41
2021/06/14 00:33:48;;;;;;;7.88;7.05;;;;;;;;;;5094197;28;20019;-41
2021/06/14 00:36:13;;;;;;;8.70;7.57;;;;;;;;;;5099090;27;20015;-42
2021/06/14 00:38:39;;;;;;;8.32;7.63;;;;;;;;;;5101584;27;20026;-41
2021/06/14 00:41:05;;;;;;;9.40;8.50;;;;;;;;;;5093949;28;20387;-42
2021/06/14 00:43:32;;;;;;;8.48;7.68;;;;;;;;;;5097779;28;20032;-43
2021/06/14 00:45:58;;;;;;;9.98;8.93;;;;;;;;;;5098894;28;20680;-43
2021/06/14 00:48:24;;;;;;;7.63;7.03;;;;;;;;;;5098373;28;20507;-44
2021/06/14 00:50:49;;;;;;;8.77;7.90;;;;;;;;;;5099688;28;20024;-44
2021/06/14 00:53:16;;;;;;;7.80;7.20;;;;;;;;;;5098155;27;20386;-43
2021/06/14 00:55:42;;;;;;;12.68;8.43;;;;;;;;;;5097650;27;20016;-43
2021/06/14 00:58:07;;;;;;;8.23;7.43;;;;;;;;;;5099523;28;20020;-48
2021/06/14 01:00:33;;;;;;;7.95;7.18;;;;;;;;;;5097518;27;20695;-44
2021/06/14 01:02:58;;;;;;;8.88;8.07;;;;;;;;;;5109184;27;20019;-43
2021/06/14 01:05:24;;;;;;;10.15;7.00;;;;;;;;;;5113889;27;20043;-41
2021/06/14 01:07:49;;;;;;;8.07;7.18;;;;;;;;;;5114842;27;20023;-42
2021/06/14 01:10:15;;;;;;;8.25;7.45;;;;;;;;;;5102426;27;20028;-41
2021/06/14 01:12:56;;;;;;;9.45;8.63;;;;;;;;;;5102369;27;20047;-42
2021/06/14 01:15:22;;;;;;;8.48;6.85;;;;;;;;;;5107542;27;20502;-41
2021/06/14 01:17:57;;;;;;;9.52;8.05;;;;;;;;;;5098898;27;20068;-42
2021/06/14 01:20:46;;;;;;;8.75;7.35;;;;;;;;;;5093036;27;20023;-43
2021/06/14 01:23:14;;;;;;;12.10;7.78;;;;;;;;;;5076112;27;20402;-41
2021/06/14 01:25:54;;;;;;;8.07;7.40;;;;;;;;;;5101613;27;20389;-42
2021/06/14 01:28:20;;;;;;;11.00;8.63;;;;;;;;;;5098532;27;20131;-42
2021/06/14 01:30:46;;;;;;;8.75;7.85;;;;;;;;;;5102653;27;20026;-41
2021/06/14 01:33:13;;;;;;;9.18;7.03;;;;;;;;;;5103037;27;20019;-42
2021/06/14 01:35:40;;;;;;;9.77;8.98;;;;;;;;;;5104418;27;20078;-41
2021/06/14 01:38:06;;;;;;;9.63;7.55;;;;;;;;;;5105833;27;20440;-41
2021/06/14 01:40:33;;;;;;;7.85;6.90;;;;;;;;;;5098432;27;20028;-43
2021/06/14 01:43:00;;;;;;;8.10;6.70;;;;;;;;;;5104289;27;20174;-41
2021/06/14 01:45:26;;;;;;;9.13;7.60;;;;;;;;;;5102747;27;20040;-43
2021/06/14 01:47:52;;;;;;;11.43;8.80;;;;;;;;;;5102654;27;20184;-41
2021/06/14 01:50:18;;;;;;;8.30;7.55;;;;;;;;;;5099053;27;20447;-43
2021/06/14 01:52:43;;;;;;;8.70;7.03;;;;;;;;;;5096039;27;20031;-41
2021/06/14 01:55:09;;;;;;;7.93;7.22;;;;;;;;;;5097697;27;20255;-41
2021/06/14 01:57:35;;;;;;;8.55;7.75;;;;;;;;;;5099363;27;20136;-44
2021/06/14 02:00:00;;;;;;;9.70;8.90;;;;;;;;;;5100847;27;20611;-42
2021/06/14 02:02:29;;;;;;;7.55;6.85;;;;;;;;;;5100061;27;20364;-41
2021/06/14 02:04:55;;;;;;;8.20;7.47;;;;;;;;;;5103234;27;20177;-43
2021/06/14 02:07:20;;;;;;;9.23;8.32;;;;;;;;;;5105380;27;20051;-41
2021/06/14 02:09:46;;;;;;;11.15;8.45;;;;;;;;;;5102247;27;20588;-41
2021/06/14 02:12:12;;;;;;;8.43;7.63;;;;;;;;;;5101441;27;20471;-43
2021/06/14 02:14:38;;;;;;;9.50;7.35;;;;;;;;;;5103049;27;20032;-41
2021/06/14 02:17:06;;;;;;;8.88;8.05;;;;;;;;;;5103039;27;20034;-42
2021/06/14 02:19:31;;;;;;;7.85;7.07;;;;;;;;;;5103058;27;20016;-41
2021/06/14 02:21:56;;;;;;;7.63;6.03;;;;;;;;;;5102418;27;20462;-41
2021/06/14 02:24:22;;;;;;;7.82;7.13;;;;;;;;;;5099024;27;20020;-42
2021/06/14 02:26:47;;;;;;;7.20;6.60;;;;;;;;;;5097248;27;20056;-42
2021/06/14 02:29:13;;;;;;;14.27;8.30;;;;;;;;;;5101467;27;20712;-41
2021/06/14 02:31:38;;;;;;;8.18;7.45;;;;;;;;;;5103789;27;20399;-43
2021/06/14 02:34:04;;;;;;;8.43;7.63;;;;;;;;;;5100407;27;20491;-41
2021/06/14 02:36:30;;;;;;;10.05;8.40;;;;;;;;;;5098710;27;20032;-41
2021/06/14 02:38:58;;;;;;;7.82;7.13;;;;;;;;;;5099442;27;20024;-41
2021/06/14 02:41:23;;;;;;;10.35;6.53;;;;;;;;;;5095775;27;20027;-42
2021/06/14 02:43:49;;;;;;;7.97;7.05;;;;;;;;;;5102239;27;20035;-41
2021/06/14 02:46:15;;;;;;;14.05;7.82;;;;;;;;;;5097571;27;20826;-42
2021/06/14 02:48:41;;;;;;;8.30;6.13;;;;;;;;;;5110569;27;20016;-42
2021/06/14 02:51:06;;;;;;;6.85;6.05;;;;;;;;;;5106167;27;20047;-41
2021/06/14 02:53:32;;;;;;;8.80;8.00;;;;;;;;;;5101158;27;20074;-41
2021/06/14 02:56:02;;;;;;;16.33;10.75;;;;;;;;;;5105813;27;20107;-41
2021/06/14 02:58:32;;;;;;;9.77;8.88;;;;;;;;;;5103612;27;20023;-41
2021/06/14 03:00:58;;;;;;;9.23;8.40;;;;;;;;;;5105562;27;20368;-44
2021/06/14 03:03:23;;;;;;;10.32;9.40;;;;;;;;;;5099501;27;20085;-41
2021/06/14 03:05:48;;;;;;;9.05;8.15;;;;;;;;;;5097945;27;20756;-41
2021/06/14 03:08:15;;;;;;;8.05;7.30;;;;;;;;;;5100477;27;20027;-41
2021/06/14 03:10:41;;;;;;;8.27;7.35;;;;;;;;;;5095742;27;20391;-41
2021/06/14 03:13:06;;;;;;;8.65;7.93;;;;;;;;;;5101592;27;20027;-41
2021/06/14 03:15:32;;;;;;;8.20;7.45;;;;;;;;;;5097407;27;20012;-42
2021/06/14 03:17:58;;;;;;;15.57;8.18;;;;;;;;;;5096639;27;20023;-43
2021/06/14 03:20:24;;;;;;;11.95;7.70;;;;;;;;;;5102947;27;20030;-41
2021/06/14 03:22:49;;;;;;;8.23;7.53;;;;;;;;;;5106764;27;20026;-42
2021/06/14 03:25:15;;;;;;;9.18;8.38;;;;;;;;;;5104952;27;20035;-41
2021/06/14 03:27:42;;;;;;;8.90;8.10;;;;;;;;;;5106537;27;20016;-41
2021/06/14 03:30:08;;;;;;;8.65;7.75;;;;;;;;;;5101731;27;20029;-43
2021/06/14 03:32:38;;;;;;;7.97;7.32;;;;;;;;;;5099391;27;20028;-42
2021/06/14 03:35:03;;;;;;;9.43;8.53;;;;;;;;;;5101935;27;20113;-41
2021/06/14 03:37:29;;;;;;;8.32;7.55;;;;;;;;;;5094017;27;20894;-45
2021/06/14 03:39:54;;;;;;;8.07;7.45;;;;;;;;;;5098020;27;20024;-44
2021/06/14 03:42:20;;;;;;;10.68;8.68;;;;;;;;;;5101583;27;20031;-45
2021/06/14 03:44:45;;;;;;;9.43;8.45;;;;;;;;;;5095114;27;20535;-44
2021/06/14 03:47:10;;;;;;;9.25;8.23;;;;;;;;;;5103768;27;20088;-42
2021/06/14 03:49:36;;;;;;;8.77;7.93;;;;;;;;;;5103725;27;20022;-41
2021/06/14 03:52:01;;;;;;;9.25;6.72;;;;;;;;;;5104842;27;20036;-41
2021/06/14 03:54:26;;;;;;;10.20;8.25;;;;;;;;;;5101945;27;20548;-42
2021/06/14 03:56:52;;;;;;;11.48;7.82;;;;;;;;;;5101681;27;20026;-42
2021/06/14 03:59:17;;;;;;;8.85;8.07;;;;;;;;;;5103792;27;20112;-43
2021/06/14 04:01:42;;;;;;;12.50;8.52;;;;;;;;;;5097185;27;20015;-41
2021/06/14 04:06:36;;;;;;;9.75;8.88;;;;;;;;;;5094706;27;20098;-42
2021/06/14 04:09:02;;;;;;;11.27;10.18;;;;;;;;;;5097192;27;20552;-41
2021/06/14 04:11:28;;;;;;;8.02;7.10;;;;;;;;;;5096971;28;20057;-41
2021/06/14 04:13:53;;;;;;;8.77;7.93;;;;;;;;;;5096417;28;20766;-41
2021/06/14 04:16:19;;;;;;;16.42;10.35;;;;;;;;;;5097153;27;20026;-41
2021/06/14 04:18:44;;;;;;;12.32;9.60;;;;;;;;;;5108915;27;20063;-44
2021/06/14 04:21:10;;;;;;;12.68;11.00;;;;;;;;;;5096215;28;20016;-44
2021/06/14 04:23:35;;;;;;;10.55;9.65;;;;;;;;;;5096017;27;20024;-41
2021/06/14 04:26:00;;;;;;;10.15;9.23;;;;;;;;;;5098135;27;20054;-41
2021/06/14 04:28:25;;;;;;;9.07;8.27;;;;;;;;;;5099223;27;20505;-42
2021/06/14 04:30:51;;;;;;;9.18;8.38;;;;;;;;;;5096329;27;20084;-41
2021/06/14 04:33:16;;;;;;;8.38;7.60;;;;;;;;;;5092131;28;20494;-42
2021/06/14 04:35:42;;;;;;;8.63;7.85;;;;;;;;;;5100242;27;20020;-42
2021/06/14 04:38:07;;;;;;;11.25;10.15;;;;;;;;;;5105032;27;20027;-46
2021/06/14 04:40:32;;;;;;;14.18;9.48;;;;;;;;;;5103018;28;20581;-41
2021/06/14 04:42:57;;;;;;;9.15;8.25;;;;;;;;;;5098514;28;20020;-41
2021/06/14 04:45:23;;;;;;;14.73;9.02;;;;;;;;;;5101186;27;20027;-42
2021/06/14 04:47:49;;;;;;;7.30;6.70;;;;;;;;;;5099195;28;20387;-41
2021/06/14 04:50:16;;;;;;;9.25;8.20;;;;;;;;;;5093502;28;20024;-41
2021/06/14 04:52:41;;;;;;;9.02;7.68;;;;;;;;;;5102130;28;20442;-43
2021/06/14 04:55:06;;;;;;;15.00;8.25;;;;;;;;;;5096585;28;20020;-42
2021/06/14 04:57:32;;;;;;;11.05;7.40;;;;;;;;;;5095786;28;20467;-41
2021/06/14 04:59:57;;;;;;;9.30;8.50;;;;;;;;;;5097647;28;20024;-41
2021/06/14 05:02:22;;;;;;;10.68;9.68;;;;;;;;;;5096452;28;20027;-44
2021/06/14 05:04:48;;;;;;;11.50;10.50;;;;;;;;;;5098258;28;20051;-43
2021/06/14 05:07:13;;;;;;;13.63;9.80;;;;;;;;;;5095166;28;20560;-42
2021/06/14 05:09:39;;;;;;;12.05;10.95;;;;;;;;;;5100998;28;20027;-43
2021/06/14 05:12:04;;;;;;;11.98;8.55;;;;;;;;;;5098249;28;20550;-40
2021/06/14 05:14:30;;;;;;;13.65;10.13;;;;;;;;;;5101008;28;20074;-41
2021/06/14 05:16:55;;;;;;;11.23;9.20;;;;;;;;;;5102561;27;20107;-42
2021/06/14 05:19:20;;;;;;;16.65;15.00;;;;;;;;;;5102141;28;20053;-41
2021/06/14 05:21:45;;;;;;;12.75;11.40;;;;;;;;;;5099929;28;20085;-41
2021/06/14 05:24:11;;;;;;;10.45;9.52;;;;;;;;;;5097049;28;20504;-43
2021/06/14 05:26:36;;;;;;;14.45;11.15;;;;;;;;;;5097280;28;20160;-42
2021/06/14 05:29:01;;;;;;;13.45;10.68;;;;;;;;;;5103995;28;20024;-41
2021/06/14 05:31:27;;;;;;;10.88;9.35;;;;;;;;;;5107954;28;20055;-41
2021/06/14 05:33:52;;;;;;;9.77;8.80;;;;;;;;;;5097200;27;20111;-39
2021/06/14 05:36:17;;;;;;;15.25;11.40;;;;;;;;;;5095594;28;20020;-39
2021/06/14 05:38:43;;;;;;;11.10;9.93;;;;;;;;;;5096826;28;20016;-39
2021/06/14 05:41:08;;;;;;;11.68;10.48;;;;;;;;;;5098732;28;20017;-39
2021/06/14 05:43:34;;;;;;;11.32;10.32;;;;;;;;;;5096699;28;20043;-39
2021/06/14 05:45:59;;;;;;;12.25;11.15;;;;;;;;;;5103406;27;20035;-39
2021/06/14 05:48:25;;;;;;;11.02;9.93;;;;;;;;;;5100400;27;20051;-39
2021/06/14 05:50:50;;;;;;;12.30;9.10;;;;;;;;;;5100889;27;20028;-38
2021/06/14 05:53:15;;;;;;;21.85;10.07;;;;;;;;;;5098800;27;20069;-38
2021/06/14 05:55:40;;;;;;;10.13;9.23;;;;;;;;;;5099735;27;20070;-39
2021/06/14 05:58:06;;;;;;;10.63;9.10;;;;;;;;;;5101941;27;20130;-39
2021/06/14 06:00:31;;;;;;;10.20;9.25;;;;;;;;;;5099403;27;20016;-39
2021/06/14 06:02:57;;;;;;;12.13;8.90;;;;;;;;;;5105370;27;20019;-39
2021/06/14 06:05:22;;;;;;;10.35;9.43;;;;;;;;;;5110334;27;20027;-39
2021/06/14 06:07:48;;;;;;;14.35;10.90;;;;;;;;;;5108269;27;20028;-39
2021/06/14 06:10:13;;;;;;;10.35;9.30;;;;;;;;;;5101158;27;20024;-40
2021/06/14 06:12:39;;;;;;;17.38;9.68;;;;;;;;;;5097380;27;20309;-39
2021/06/14 06:15:06;;;;;;;12.10;9.35;;;;;;;;;;5099268;27;20118;-39
2021/06/14 06:17:31;;;;;;;14.65;9.32;;;;;;;;;;5097321;27;20034;-39
2021/06/14 06:19:57;;;;;;;12.18;11.00;;;;;;;;;;5099939;27;20028;-39
2021/06/14 06:22:22;;;;;;;16.35;10.82;;;;;;;;;;5106917;27;20106;-40
2021/06/14 06:24:47;;;;;;;10.88;9.88;;;;;;;;;;5104091;27;20027;-39
2021/06/14 06:27:13;;;;;;;10.98;9.85;;;;;;;;;;5104436;27;20130;-39
2021/06/14 06:29:38;;;;;;;13.05;9.30;;;;;;;;;;5103887;27;20434;-39
2021/06/14 06:32:04;;;;;;;13.05;10.23;;;;;;;;;;5103830;27;20475;-39
2021/06/14 06:34:29;;;;;;;11.77;9.48;;;;;;;;;;5103167;27;20020;-39
2021/06/14 06:36:54;;;;;;;10.40;9.48;;;;;;;;;;5103320;27;20085;-39
2021/06/14 06:39:19;;;;;;;9.32;8.40;;;;;;;;;;5101108;27;20062;-39
2021/06/14 06:41:45;;;;;;;10.35;9.55;;;;;;;;;;5102217;27;20042;-39
2021/06/14 06:44:11;;;;;;;10.43;9.40;;;;;;;;;;5100332;27;20502;-39
2021/06/14 06:46:37;;;;;;;11.35;7.63;;;;;;;;;;5100976;27;20031;-41
2021/06/14 06:49:02;;;;;;;9.23;8.32;;;;;;;;;;5099694;27;20098;-39
2021/06/14 06:51:28;;;;;;;9.30;8.40;;;;;;;;;;5097338;27;20056;-39
2021/06/14 06:54:10;;;;;;;12.00;7.55;;;;;;;;;;5097324;27;20237;-40
2021/06/14 06:56:37;;;;;;;14.20;10.65;;;;;;;;;;5096605;27;20024;-39
2021/06/14 06:59:02;;;;;;;12.10;9.07;;;;;;;;;;5099663;27;20012;-41
2021/06/14 07:01:27;;;;;;;8.77;7.97;;;;;;;;;;5109836;27;20072;-40
2021/06/14 07:03:53;;;;;;;32.67;18.98;;;;;;;;;;5100523;27;20391;-41
2021/06/14 07:06:18;;;;;;;15.13;9.43;;;;;;;;;;5106036;27;20131;-41
2021/06/14 07:08:45;;;;;;;18.13;11.43;;;;;;;;;;5098178;28;20024;-43
2021/06/14 07:11:10;;;;;;;16.90;8.35;;;;;;;;;;5101978;27;20151;-41
2021/06/14 07:13:35;;;;;;;25.15;7.60;;;;;;;;;;5101460;27;20055;-39
2021/06/14 07:16:01;;;;;;;13.07;7.68;;;;;;;;;;5095667;27;20084;-40
2021/06/14 07:18:26;;;;;;;12.80;7.25;;;;;;;;;;5107059;27;20039;-40
2021/06/14 07:20:52;;;;;;;22.25;8.82;;;;;;;;;;5105928;27;20016;-39
2021/06/14 07:23:17;;;;;;;8.45;6.82;;;;;;;;;;5100040;27;20024;-40
2021/06/14 07:25:42;;;;;;;8.70;7.50;;;;;;;;;;5099178;27;20306;-39
2021/06/14 07:28:08;;;;;;;8.32;7.63;;;;;;;;;;5098672;27;20682;-39
2021/06/14 07:30:33;;;;;;;8.27;6.93;;;;;;;;;;5100710;27;20073;-40
2021/06/14 07:32:59;;;;;;;18.90;7.40;;;;;;;;;;5105801;27;20020;-40
2021/06/14 07:35:24;;;;;;;11.07;8.23;;;;;;;;;;5100744;27;20036;-40
2021/06/14 07:37:49;;;;;;;10.80;9.70;;;;;;;;;;5100983;27;20111;-39
2021/06/14 07:40:15;;;;;;;20.75;10.43;;;;;;;;;;5102141;27;20084;-40
2021/06/14 07:42:41;;;;;;;20.13;10.27;;;;;;;;;;5098468;27;20024;-40
2021/06/14 07:45:06;;;;;;;11.13;9.05;;;;;;;;;;5097929;27;20036;-41
2021/06/14 07:47:32;;;;;;;11.93;10.80;;;;;;;;;;5099157;27;20027;-39
2021/06/14 07:49:57;;;;;;;12.20;8.40;;;;;;;;;;5103752;27;20038;-39
2021/06/14 07:52:22;;;;;;;14.90;10.60;;;;;;;;;;5107576;27;20031;-41
2021/06/14 07:54:49;;;;;;;12.98;9.43;;;;;;;;;;5097571;27;20550;-39
2021/06/14 07:57:14;;;;;;;11.82;9.00;;;;;;;;;;5099672;27;20838;-39
2021/06/14 07:59:40;;;;;;;12.48;6.97;;;;;;;;;;5103331;27;20039;-39
2021/06/14 08:02:05;;;;;;;14.40;7.00;;;;;;;;;;5099252;27;20090;-41
2021/06/14 08:04:30;;;;;;;8.10;6.35;;;;;;;;;;5100655;27;20411;-41
2021/06/14 08:06:56;;;;;;;7.28;6.32;;;;;;;;;;5095858;27;20774;-40
2021/06/14 08:09:27;;;;;;;6.78;6.18;;;;;;;;;;5097087;27;20051;-40
2021/06/14 08:11:55;;;;;;;13.00;8.75;;;;;;;;;;5104011;27;20034;-40
2021/06/14 08:14:20;;;;;;;14.07;7.97;;;;;;;;;;5105882;27;20285;-36
2021/06/14 08:16:45;;;;;;;6.53;5.85;;;;;;;;;;5103566;27;20519;-37
2021/06/14 08:27:24;;;;;;;7.93;6.10;;;;;;;;;;5101228;27;20058;-36
2021/06/14 08:29:50;;;;;;;4.00;3.60;;;;;;;;;;5102865;27;20586;-36
2021/06/14 08:32:16;;;;;;;19.73;5.38;;;;;;;;;;5101496;27;20035;-36
2021/06/14 08:34:41;;;;;;;15.38;5.97;;;;;;;;;;5100771;27;20098;-36
2021/06/14 08:37:07;;;;;;;10.30;5.00;;;;;;;;;;5095678;27;20020;-51
2021/06/14 08:39:32;;;;;;;5.75;4.50;;;;;;;;;;5094611;27;20027;-36
2021/06/14 08:41:59;;;;;;;4.05;3.30;;;;;;;;;;5099266;28;20015;-39
2021/06/14 08:44:25;;;;;;;6.30;3.90;;;;;;;;;;5099599;28;20092;-35
2021/06/14 08:46:53;;;;;;;3.65;3.15;;;;;;;;;;5102492;28;20031;-33
2021/06/14 08:49:18;;;;;;;13.68;4.25;;;;;;;;;;5107370;27;20077;-40
2021/06/14 08:51:44;;;;;;;4.55;4.15;;;;;;;;;;5106222;27;20753;-38
2021/06/14 08:54:09;;;;;;;7.50;4.78;;;;;;;;;;5097030;28;20081;-38
2021/06/14 08:56:34;;;;;;;3.38;2.50;;;;;;;;;;5095847;28;20027;-38
2021/06/14 08:59:00;;;;;;;10.75;5.00;;;;;;;;;;5098783;28;20047;-37
2021/06/14 09:01:28;;;;;;;11.55;4.63;;;;;;;;;;5102348;28;20019;-38
2021/06/14 09:03:53;;;;;;;5.50;4.68;;;;;;;;;;5105785;28;20442;-38
2021/06/14 09:06:18;;;;;;;9.18;8.00;;;;;;;;;;5105685;28;20046;-39
2021/06/14 09:08:57;;;;;;;11.88;8.07;;;;;;;;;;5095960;28;20024;-39
2021/06/14 09:11:22;;;;;;;5.78;5.25;;;;;;;;;;5098890;28;20030;-38
2021/06/14 09:13:47;;;;;;;4.75;4.25;;;;;;;;;;5095350;28;20039;-38
2021/06/14 09:16:15;;;;;;;7.05;6.22;;;;;;;;;;5102289;28;20024;-38
2021/06/14 09:18:41;;;;;;;7.88;6.28;;;;;;;;;;5106916;28;20039;-39
2021/06/14 09:21:18;;;;;;;7.45;4.78;;;;;;;;;;5100147;27;20719;-39
2021/06/14 09:23:46;;;;;;;6.97;5.68;;;;;;;;;;5103391;27;20028;-39
2021/06/14 09:26:27;;;;;;;6.38;3.35;;;;;;;;;;5106228;27;20088;-39
2021/06/14 09:28:52;;;;;;;;;;;;;;;;;;5102814;27;20047;-44
2021/06/14 09:31:17;;;;;;;12.00;5.53;;;;;;;;;;5097864;27;20363;-39
2021/06/14 09:33:44;;;;;;;7.25;3.70;;;;;;;;;;5100632;27;20039;-40
2021/06/14 09:36:10;;;;;;;8.88;7.97;;;;;;;;;;5105979;27;20011;-40
2021/06/14 09:38:35;;;;;;;6.53;5.93;;;;;;;;;;5107067;27;20126;-43
2021/06/14 09:41:07;;;;;;;14.88;13.38;;;;;;;;;;5104221;27;20015;-40
2021/06/14 09:43:35;;;;;;;4.05;2.53;;;;;;;;;;5108920;27;20024;-39
2021/06/14 09:46:01;;;;;;;5.50;5.00;;;;;;;;;;5105835;27;20154;-39
2021/06/14 09:48:27;;;;;;;4.68;4.22;;;;;;;;;;5101887;27;20161;-44
2021/06/14 09:50:54;;;;;;;7.70;4.22;;;;;;;;;;5102864;27;20049;-39
2021/06/14 09:53:20;;;;;;;7.75;6.28;;;;;;;;;;5098572;27;20027;-38
2021/06/14 09:55:47;;;;;;;3.35;2.42;;;;;;;;;;5095284;27;20031;-40
2021/06/14 09:58:13;;;;;;;5.57;5.07;;;;;;;;;;5095360;27;20088;-42
2021/06/14 10:00:49;;;;;;;7.68;4.70;;;;;;;;;;5104515;27;20079;-45
2021/06/14 10:03:14;;;;;;;3.60;2.50;;;;;;;;;;5104047;27;20031;-44
2021/06/14 10:05:44;;;;;;;7.68;2.90;;;;;;;;;;5105810;27;20040;-40
2021/06/14 10:08:09;;;;;;;13.68;6.50;;;;;;;;;;5100017;27;20087;-41
2021/06/14 10:10:37;;;;;;;13.52;12.20;;;;;;;;;;5095478;27;20444;-41
2021/06/14 10:13:04;;;;;;;8.07;4.38;;;;;;;;;;5104264;27;20020;-43
2021/06/14 10:15:31;;;;;;;20.98;6.85;;;;;;;;;;5106880;27;20035;-45
2021/06/14 10:17:56;;;;;;;7.50;4.38;;;;;;;;;;5101984;27;20084;-41
2021/06/14 10:20:24;;;;;;;11.00;5.35;;;;;;;;;;5101813;27;20023;-42
2021/06/14 10:22:50;;;;;;;16.02;7.00;;;;;;;;;;5105632;27;20077;-40
2021/06/14 10:25:17;;;;;;;12.95;6.20;;;;;;;;;;5096681;27;20027;-40
2021/06/14 10:27:43;;;;;;;8.25;6.00;;;;;;;;;;5098133;27;20028;-44
2021/06/14 10:30:09;;;;;;;16.45;5.55;;;;;;;;;;5104174;27;20042;-41
2021/06/14 10:32:36;;;;;;;3.00;2.50;;;;;;;;;;5103545;27;20026;-46
2021/06/14 10:35:01;;;;;;;4.70;3.97;;;;;;;;;;5102173;27;20076;-42
2021/06/14 10:37:27;;;;;;;20.48;6.78;;;;;;;;;;5099586;27;20032;-44
2021/06/14 10:39:55;;;;;;;24.38;8.05;;;;;;;;;;5100469;27;20485;-42
2021/06/14 10:42:21;;;;;;;10.25;4.82;;;;;;;;;;5102596;27;20080;-43
2021/06/14 10:44:46;;;;;;;10.43;5.65;;;;;;;;;;5106235;27;20024;-42
2021/06/14 10:47:12;;;;;;;5.32;4.25;;;;;;;;;;5108643;27;20028;-46
2021/06/14 10:49:37;;;;;;;3.15;2.45;;;;;;;;;;5100388;27;20155;-44
2021/06/14 10:52:04;;;;;;;3.60;2.72;;;;;;;;;;5103481;27;20475;-40
2021/06/14 10:54:56;;;;;;;4.07;3.67;;;;;;;;;;5100577;27;20498;-40
2021/06/14 10:57:21;;;;;;;4.88;3.10;;;;;;;;;;5100653;27;20076;-41
2021/06/14 10:59:46;;;;;;;2.85;2.25;;;;;;;;;;5100784;27;20058;-41
2021/06/14 11:02:13;;;;;;;3.05;2.55;;;;;;;;;;5099181;27;20025;-41
2021/06/14 11:04:39;;;;;;;7.20;3.70;;;;;;;;;;5097994;27;20027;-40
2021/06/14 11:07:05;;;;;;;7.72;5.97;;;;;;;;;;5103168;27;20039;-40
2021/06/14 11:09:38;;;;;;;5.00;2.33;;;;;;;;;;5100006;27;20031;-41
2021/06/14 11:12:03;;;;;;;5.40;3.17;;;;;;;;;;5104596;27;20019;-37
2021/06/14 11:14:37;;;;;;;3.67;3.33;;;;;;;;;;5102030;27;20652;-38
2021/06/14 11:17:22;;;;;;;6.57;2.90;;;;;;;;;;5099861;27;20055;-37
2021/06/14 11:19:52;;;;;;;8.43;3.10;;;;;;;;;;5096080;27;20022;-37
2021/06/14 11:22:18;;;;;;;5.57;4.25;;;;;;;;;;5104117;27;20059;-38
2021/06/14 11:24:45;;;;;;;3.63;2.58;;;;;;;;;;5100964;27;20082;-37
2021/06/14 11:27:11;;;;;;;3.58;2.92;;;;;;;;;;5102356;27;20535;-37
2021/06/14 11:29:43;;;;;;;5.70;2.97;;;;;;;;;;5108257;27;20122;-37
2021/06/14 11:32:08;;;;;;;4.05;3.65;;;;;;;;;;5103871;27;20393;-37
2021/06/14 11:34:41;;;;;;;3.17;2.55;;;;;;;;;;5101141;27;20019;-37
2021/06/14 11:37:06;;;;;;;2.75;1.73;;;;;;;;;;5098560;27;20028;-38
2021/06/14 11:39:32;;;;;;;14.57;4.20;;;;;;;;;;5104143;27;20031;-37
2021/06/14 11:42:06;;;;;;;6.40;4.43;;;;;;;;;;5097359;27;20027;-37
2021/06/14 11:44:32;;;;;;;6.32;3.38;;;;;;;;;;5097842;27;20503;-37
2021/06/14 11:47:00;;;;;;;12.15;4.15;;;;;;;;;;5095741;27;20107;-37
2021/06/14 11:49:30;;;;;;;4.60;3.95;;;;;;;;;;5103874;27;20102;-37
2021/06/14 11:51:56;;;;;;;20.58;16.27;;;;;;;;;;5102411;27;20020;-38
2021/06/14 11:54:21;;;;;;;7.88;4.45;;;;;;;;;;5099699;27;20027;-38
2021/06/14 11:56:58;;;;;;;10.57;4.55;;;;;;;;;;5101305;27;20565;-37
2021/06/14 11:59:28;;;;;;;3.88;2.78;;;;;;;;;;5102591;27;20011;-37
2021/06/14 12:01:54;;;;;;;2.30;2.03;;;;;;;;;;5104652;27;20028;-37
2021/06/14 12:04:21;;;;;;;2.33;1.83;;;;;;;;;;5101439;27;20042;-37
2021/06/14 12:06:47;;;;;;;3.08;2.78;;;;;;;;;;5099310;27;20096;-38
2021/06/14 12:09:14;;;;;;;2.65;2.28;;;;;;;;;;5099609;27;20023;-37
2021/06/14 12:11:39;;;;;;;6.43;3.63;;;;;;;;;;5098213;27;20024;-37
2021/06/14 12:14:14;;;;;;;4.05;3.28;;;;;;;;;;5096263;27;20092;-37
2021/06/14 12:16:43;;;;;;;12.68;3.13;;;;;;;;;;5099557;28;20015;-37
2021/06/14 12:19:09;;;;;;;8.18;4.93;;;;;;;;;;5097259;27;20024;-37
2021/06/14 12:21:34;;;;;;;3.85;2.58;;;;;;;;;;5096637;28;20084;-37
2021/06/14 12:23:59;;;;;;;2.92;2.00;;;;;;;;;;5100825;27;20379;-38
2021/06/14 12:26:32;;;;;;;4.07;3.00;;;;;;;;;;5096979;27;20039;-37
2021/06/14 12:28:57;;;;;;;3.80;2.50;;;;;;;;;;5094863;28;20035;-38
2021/06/14 12:31:23;;;;;;;4.03;3.20;;;;;;;;;;5102436;27;20054;-38
2021/06/14 12:33:48;;;;;;;3.05;2.75;;;;;;;;;;5098760;27;20026;-38
2021/06/14 12:36:16;;;;;;;2.28;1.58;;;;;;;;;;5097738;27;20079;-39
2021/06/14 12:38:51;;;;;;;1.80;1.55;;;;;;;;;;5097306;27;20391;-38
2021/06/14 12:41:17;;;;;;;3.15;2.85;;;;;;;;;;5098355;28;20016;-38
2021/06/14 12:43:43;;;;;;;12.38;3.80;;;;;;;;;;5099786;28;20023;-38
2021/06/14 12:46:08;;;;;;;4.93;4.47;;;;;;;;;;5095729;28;20232;-38
2021/06/14 12:48:33;;;;;;;5.07;4.22;;;;;;;;;;5098052;28;20624;-38
2021/06/14 12:50:58;;;;;;;3.45;3.15;;;;;;;;;;5098312;28;20087;-40
2021/06/14 12:53:25;;;;;;;3.38;3.08;;;;;;;;;;5096030;28;20362;-38
2021/06/14 12:55:55;;;;;;;4.15;3.03;;;;;;;;;;5097272;27;20059;-37
2021/06/14 12:58:21;;;;;;;2.47;2.05;;;;;;;;;;5107904;27;20468;-36
2021/06/14 13:00:48;;;;;;;4.10;3.10;;;;;;;;;;5105700;27;20186;-37
2021/06/14 13:03:13;;;;;;;2.08;1.73;;;;;;;;;;5103533;27;20463;-39
2021/06/14 13:05:40;;;;;;;5.47;4.15;;;;;;;;;;5099991;28;20526;-37
2021/06/14 13:08:08;;;;;;;4.68;3.72;;;;;;;;;;5098329;27;20553;-37
2021/06/14 13:10:34;;;;;;;7.85;7.05;;;;;;;;;;5103148;27;20105;-38
2021/06/14 13:13:11;;;;;;;3.33;2.53;;;;;;;;;;5106119;27;20043;-37
2021/06/14 13:15:37;;;;;;;3.38;1.95;;;;;;;;;;5104961;27;20397;-38
2021/06/14 13:18:02;;;;;;;3.35;3.05;;;;;;;;;;5105319;27;20458;-38
2021/06/14 13:20:33;;;;;;;8.02;3.67;;;;;;;;;;5102483;27;20026;-39
2021/06/14 13:22:58;;;;;;;;;;;;;;;;;;5104986;27;20156;-38
2021/06/14 13:25:25;;;;;;;3.90;2.87;;;;;;;;;;5103829;27;20395;-39
2021/06/14 13:27:52;;;;;;;4.00;2.45;;;;;;;;;;5103045;27;20034;-39
2021/06/14 13:30:18;;;;;;;2.97;2.35;;;;;;;;;;5104686;27;20027;-39
2021/06/14 13:35:26;;;;;;;3.58;3.20;;;;;;;;;;5099930;27;20024;-38
2021/06/14 13:37:54;;;;;;;4.97;3.45;;;;;;;;;;5098953;27;20096;-39
2021/06/14 13:40:26;;;;;;;7.10;2.72;;;;;;;;;;5103178;27;20019;-38
2021/06/14 13:42:54;;;;;;;4.90;3.88;;;;;;;;;;5103034;27;20024;-38
2021/06/14 13:45:36;;;;;;;2.60;2.38;;;;;;;;;;5107973;27;20126;-38
2021/06/14 13:48:03;;;;;;;3.28;2.40;;;;;;;;;;5103345;27;20026;-38
2021/06/14 13:50:31;;;;;;;4.47;4.07;;;;;;;;;;5105073;27;20022;-40
2021/06/14 13:53:04;;;;;;;4.28;2.80;;;;;;;;;;5100453;27;20076;-39
2021/06/14 13:55:29;;;;;;;3.60;3.20;;;;;;;;;;5096666;28;20024;-44
2021/06/14 13:57:55;;;;;;;3.13;2.38;;;;;;;;;;5101393;27;20033;-39
2021/06/14 14:00:24;;;;;;;2.13;1.90;;;;;;;;;;5101854;27;20023;-37
2021/06/14 14:02:50;;;;;;;4.80;3.88;;;;;;;;;;5098073;28;20020;-37
2021/06/14 14:05:43;;;;;;;9.93;4.45;;;;;;;;;;5102684;27;20035;-37
2021/06/14 14:08:08;;;;;;;6.53;3.72;;;;;;;;;;5097530;27;20040;-38
2021/06/14 14:10:34;;;;;;;3.50;2.88;;;;;;;;;;5105524;27;20030;-38
2021/06/14 14:13:00;;;;;;;2.72;2.47;;;;;;;;;;5102197;27;20087;-37
2021/06/14 14:15:25;;;;;;;2.95;2.63;;;;;;;;;;5100095;27;20201;-38
2021/06/14 14:17:50;;;;;;;4.30;2.33;;;;;;;;;;5106044;27;20042;-38
2021/06/14 14:20:19;;;;;;;3.33;3.03;;;;;;;;;;5104076;27;20354;-37
2021/06/14 14:22:45;;;;;;;3.50;2.83;;;;;;;;;;5099351;27;20018;-37
2021/06/14 14:25:10;;;;;;;4.35;3.40;;;;;;;;;;5097661;27;20023;-41
2021/06/14 14:27:36;;;;;;;3.53;3.22;;;;;;;;;;5103119;27;20030;-38
2021/06/14 14:30:02;;;;;;;5.15;3.92;;;;;;;;;;5101204;27;20028;-42
2021/06/14 14:32:27;;;;;;;6.55;4.82;;;;;;;;;;5101381;28;20390;-39
2021/06/14 14:34:58;;;;;;;9.60;3.60;;;;;;;;;;5110745;27;20506;-39
2021/06/14 14:37:23;;;;;;;4.60;2.97;;;;;;;;;;5107901;27;20852;-39
2021/06/14 14:39:52;;;;;;;5.23;4.37;;;;;;;;;;5101445;27;20145;-39
2021/06/14 14:42:18;;;;;;;3.80;2.88;;;;;;;;;;5099390;27;20237;-41
2021/06/14 14:44:43;;;;;;;5.50;2.88;;;;;;;;;;5104055;27;20035;-42
2021/06/14 14:47:08;;;;;;;3.50;2.42;;;;;;;;;;5100558;27;20434;-40
2021/06/14 14:49:34;;;;;;;3.42;2.50;;;;;;;;;;5100878;27;20049;-41